createdAt,value
2018-05-18T00:01:36.239Z,99323.27
2018-05-18T00:04:05.315Z,99324.16
2018-05-18T00:06:34.549Z,99325.94
2018-05-18T00:09:03.392Z,99323.29
2018-05-18T00:11:31.784Z,99322.89
2018-05-18T00:14:00.132Z,99329.25
2018-05-18T00:16:28.500Z,99323.81
2018-05-18T00:18:56.779Z,99327.92
2018-05-18T00:21:25.400Z,99325.14
2018-05-18T00:23:53.837Z,99314.81
2018-05-18T00:26:23.040Z,99317.84
2018-05-18T00:28:52.054Z,99333.36
2018-05-18T00:31:21.683Z,99320.12
2018-05-18T00:33:50.020Z,99323.70
2018-05-18T00:36:18.376Z,99317.06
2018-05-18T00:38:47.642Z,99320.50
2018-05-18T00:41:16.044Z,99306.28
2018-05-18T00:43:44.430Z,99314.41
2018-05-18T00:46:13.193Z,99311.09
2018-05-18T00:48:41.501Z,99312.83
2018-05-18T00:51:09.858Z,99314.80
2018-05-18T00:53:38.245Z,99316.53
2018-05-18T00:56:06.556Z,99317.86
2018-05-18T00:58:34.846Z,99314.73
2018-05-18T01:01:05.678Z,99312.08
2018-05-18T01:03:35.355Z,99291.27
2018-05-18T01:06:03.687Z,99303.39
2018-05-18T01:08:32.114Z,99313.45
2018-05-18T01:11:00.354Z,99315.70
2018-05-18T01:13:28.661Z,99319.30
2018-05-18T01:15:57.920Z,99316.52
2018-05-18T01:18:26.182Z,99315.73
2018-05-18T01:20:55.436Z,99319.62
2018-05-18T01:23:24.379Z,99318.19
2018-05-18T01:25:52.758Z,99316.31
2018-05-18T01:28:21.067Z,99314.16
2018-05-18T01:30:49.417Z,99312.02
2018-05-18T01:33:17.718Z,99312.42
2018-05-18T01:35:46.015Z,99314.67
2018-05-18T01:38:14.347Z,99315.33
2018-05-18T01:40:42.628Z,99316.09
2018-05-18T01:43:10.931Z,99315.45
2018-05-18T01:45:39.205Z,99314.74
2018-05-18T01:48:07.522Z,99314.61
2018-05-18T01:50:35.812Z,99318.06
2018-05-18T01:53:04.793Z,99316.61
2018-05-18T01:55:33.244Z,99318.91
2018-05-18T01:58:01.577Z,99314.84
2018-05-18T02:00:29.863Z,99313.77
2018-05-18T02:02:58.141Z,99311.78
2018-05-18T02:05:26.460Z,99322.58
2018-05-18T02:07:54.822Z,99319.63
2018-05-18T02:10:23.200Z,99320.03
2018-05-18T02:12:51.478Z,99324.59
2018-05-18T02:15:19.889Z,99318.02
2018-05-18T02:17:48.147Z,99317.12
2018-05-18T02:20:16.454Z,99321.64
2018-05-18T02:22:44.747Z,99316.48
2018-05-18T02:25:13.078Z,99307.41
2018-05-18T02:27:41.372Z,99316.34
2018-05-18T02:30:09.651Z,99317.09
2018-05-18T02:32:37.939Z,99317.66
2018-05-18T02:35:06.218Z,99321.34
2018-05-18T02:37:34.522Z,99319.08
2018-05-18T02:40:02.786Z,99320.63
2018-05-18T02:42:32.333Z,99308.45
2018-05-18T02:45:00.577Z,99312.70
2018-05-18T02:47:28.855Z,99308.71
2018-05-18T02:49:57.137Z,99309.00
2018-05-18T02:52:25.434Z,99177.77
2018-05-18T02:54:54.828Z,99309.98
2018-05-18T02:57:23.171Z,99298.63
2018-05-18T02:59:51.490Z,99313.34
2018-05-18T03:02:19.928Z,99315.17
2018-05-18T03:04:48.943Z,99318.33
2018-05-18T03:07:17.253Z,99319.81
2018-05-18T03:09:45.572Z,99323.42
2018-05-18T03:12:14.402Z,99310.66
2018-05-18T03:14:42.699Z,99316.11
2018-05-18T03:17:10.986Z,99314.56
2018-05-18T03:19:39.289Z,99318.92
2018-05-18T03:22:07.624Z,99313.59
2018-05-18T03:24:35.927Z,99318.83
2018-05-18T03:27:04.881Z,99321.75
2018-05-18T03:29:33.250Z,99323.34
2018-05-18T03:32:01.573Z,99324.46
2018-05-18T03:34:29.919Z,99326.86
2018-05-18T03:36:58.420Z,99327.33
2018-05-18T03:39:26.702Z,99333.53
2018-05-18T03:41:55.649Z,99336.88
2018-05-18T03:44:23.987Z,99335.47
2018-05-18T03:46:52.317Z,99336.33
2018-05-18T03:49:20.666Z,99329.55
2018-05-18T03:51:49.007Z,99331.73
2018-05-18T03:54:17.346Z,99333.69
2018-05-18T03:56:45.615Z,99337.56
2018-05-18T03:59:13.906Z,99336.64
2018-05-18T04:01:54.042Z,99337.02
2018-05-18T04:04:34.897Z,99283.96
2018-05-18T04:07:15.845Z,99302.38
2018-05-18T04:09:44.172Z,99342.45
2018-05-18T04:12:12.497Z,99345.02
2018-05-18T04:14:40.846Z,99350.44
2018-05-18T04:17:09.142Z,99350.84
2018-05-18T04:19:37.445Z,99351.02
2018-05-18T04:22:05.794Z,99353.59
2018-05-18T04:24:34.096Z,99356.62
2018-05-18T04:27:02.434Z,99355.56
2018-05-18T04:29:30.719Z,99352.91
2018-05-18T04:31:59.132Z,99356.36
2018-05-18T04:34:27.401Z,99360.31
2018-05-18T04:36:55.720Z,99363.20
2018-05-18T04:39:24.006Z,99364.67
2018-05-18T04:41:52.310Z,99368.95
2018-05-18T04:44:20.643Z,99365.69
2018-05-18T04:46:48.978Z,99365.25
2018-05-18T04:49:17.319Z,99363.55
2018-05-18T04:51:45.595Z,99362.70
2018-05-18T04:54:13.954Z,99372.53
2018-05-18T04:56:42.232Z,99368.34
2018-05-18T04:59:10.578Z,99371.56
2018-05-18T05:01:38.902Z,99355.89
2018-05-18T05:04:07.216Z,99368.41
2018-05-18T05:06:35.490Z,99367.01
2018-05-18T05:09:03.790Z,99369.91
2018-05-18T05:11:32.074Z,99371.14
2018-05-18T05:14:00.516Z,99369.36
2018-05-18T05:16:28.782Z,99368.86
2018-05-18T05:18:59.939Z,99376.02
2018-05-18T05:21:28.218Z,99375.65
2018-05-18T05:23:57.284Z,99376.22
2018-05-18T05:26:25.551Z,99384.04
2018-05-18T05:28:53.890Z,99374.98
2018-05-18T05:31:22.210Z,99372.16
2018-05-18T05:33:50.562Z,99369.05
2018-05-18T05:36:18.931Z,99374.44
2018-05-18T05:38:47.194Z,99378.52
2018-05-18T05:41:15.771Z,99365.28
2018-05-18T05:43:44.059Z,99378.54
2018-05-18T05:46:12.398Z,99372.50
2018-05-18T05:48:40.814Z,99375.11
2018-05-18T05:51:09.399Z,99383.82
2018-05-18T05:53:37.740Z,99385.55
2018-05-18T05:56:06.139Z,99388.88
2018-05-18T05:58:34.530Z,99388.23
2018-05-18T06:01:02.776Z,99383.20
2018-05-18T06:03:31.339Z,99394.66
2018-05-18T06:06:00.454Z,99381.69
2018-05-18T06:08:28.823Z,99388.00
2018-05-18T06:10:57.183Z,99390.16
2018-05-18T06:13:25.586Z,99388.06
2018-05-18T06:15:53.915Z,99388.22
2018-05-18T06:18:22.236Z,99388.84
2018-05-18T06:20:51.428Z,99394.58
2018-05-18T06:23:19.825Z,99399.98
2018-05-18T06:25:48.430Z,99389.14
2018-05-18T06:28:17.011Z,99390.73
2018-05-18T06:30:45.331Z,99390.50
2018-05-18T06:33:13.638Z,99390.09
2018-05-18T06:35:41.960Z,99393.26
2018-05-18T06:38:10.259Z,99390.22
2018-05-18T06:40:38.581Z,99394.59
2018-05-18T06:43:06.849Z,99396.86
2018-05-18T06:45:35.217Z,99394.06
2018-05-18T06:48:03.559Z,99397.38
2018-05-18T06:50:32.230Z,99390.11
2018-05-18T06:53:00.580Z,99391.16
2018-05-18T06:55:29.744Z,99393.52
2018-05-18T06:57:58.381Z,99398.55
2018-05-18T07:00:27.786Z,99395.50
2018-05-18T07:02:56.100Z,99401.45
2018-05-18T07:05:24.589Z,99378.41
2018-05-18T07:07:52.960Z,99393.61
2018-05-18T07:10:21.401Z,99385.23
2018-05-18T07:12:49.726Z,99399.27
2018-05-18T07:15:18.003Z,99393.61
2018-05-18T07:17:46.320Z,99395.79
2018-05-18T07:20:16.300Z,99396.76
2018-05-18T07:22:44.646Z,99401.42
2018-05-18T07:25:13.110Z,99394.02
2018-05-18T07:27:41.402Z,99391.52
2018-05-18T07:30:09.797Z,99395.45
2018-05-18T07:32:38.040Z,99394.42
2018-05-18T07:35:06.331Z,99400.50
2018-05-18T07:37:34.790Z,99397.23
2018-05-18T07:40:03.121Z,99405.21
2018-05-18T07:42:31.440Z,99396.70
2018-05-18T07:44:59.737Z,99382.83
2018-05-18T07:47:28.113Z,99399.56
2018-05-18T07:49:56.507Z,99397.10
2018-05-18T07:52:24.803Z,99386.99
2018-05-18T07:54:53.188Z,99394.56
2018-05-18T07:57:21.539Z,99394.23
2018-05-18T07:59:49.911Z,99393.75
2018-05-18T08:02:19.982Z,99389.27
2018-05-18T08:04:48.363Z,99391.50
2018-05-18T08:07:16.669Z,99379.84
2018-05-18T08:09:45.102Z,99383.40
2018-05-18T08:12:14.091Z,99388.47
2018-05-18T08:14:43.662Z,99388.42
2018-05-18T08:17:12.208Z,99388.06
2018-05-18T08:19:40.527Z,99384.19
2018-05-18T08:22:08.858Z,99386.38
2018-05-18T08:24:37.260Z,99384.48
2018-05-18T08:27:17.358Z,99393.16
2018-05-18T08:29:45.889Z,99386.12
2018-05-18T08:32:14.217Z,99385.64
2018-05-18T08:34:42.496Z,99388.66
2018-05-18T08:37:10.815Z,99387.42
2018-05-18T08:39:39.090Z,99375.17
2018-05-18T08:42:07.408Z,99379.33
2018-05-18T08:44:35.878Z,99378.13
2018-05-18T08:47:05.496Z,99379.05
2018-05-18T08:49:33.847Z,99376.32
2018-05-18T08:52:03.109Z,99380.58
2018-05-18T08:54:31.419Z,99372.79
2018-05-18T08:56:59.732Z,99375.20
2018-05-18T08:59:28.317Z,99381.91
2018-05-18T09:01:56.917Z,99376.83
2018-05-18T09:04:25.215Z,99377.97
2018-05-18T09:06:53.629Z,99380.25
2018-05-18T09:09:21.948Z,99372.57
2018-05-18T09:11:50.352Z,99375.87
2018-05-18T09:14:18.704Z,99378.30
2018-05-18T09:16:47.040Z,99381.05
2018-05-18T09:19:15.592Z,99374.84
2018-05-18T09:21:43.872Z,99375.72
2018-05-18T09:24:12.202Z,99372.34
2018-05-18T09:26:41.420Z,99369.28
2018-05-18T09:29:09.737Z,99362.64
2018-05-18T09:31:38.103Z,99364.66
2018-05-18T09:34:06.471Z,99368.76
2018-05-18T09:36:34.709Z,99364.45
2018-05-18T09:39:03.023Z,99370.09
2018-05-18T09:41:31.294Z,99366.48
2018-05-18T09:43:59.770Z,99365.91
2018-05-18T09:46:28.144Z,99364.86
2018-05-18T09:48:56.583Z,99368.78
2018-05-18T09:51:24.936Z,99369.70
2018-05-18T09:53:53.251Z,99366.45
2018-05-18T09:56:22.331Z,99363.91
2018-05-18T09:58:50.672Z,99371.30
2018-05-18T10:01:19.334Z,99365.69
2018-05-18T10:03:47.636Z,99361.64
2018-05-18T10:06:16.036Z,99364.94
2018-05-18T10:08:44.354Z,99362.19
2018-05-18T10:11:12.763Z,99351.84
2018-05-18T10:13:41.015Z,99363.65
2018-05-18T10:16:10.227Z,99359.91
2018-05-18T10:18:39.257Z,99365.59
2018-05-18T10:21:07.502Z,99364.27
2018-05-18T10:23:35.838Z,99359.33
2018-05-18T10:26:05.064Z,99349.30
2018-05-18T10:28:33.375Z,99360.43
2018-05-18T10:31:02.434Z,99361.46
2018-05-18T10:33:34.075Z,99357.34
2018-05-18T10:36:02.611Z,99353.43
2018-05-18T10:38:31.195Z,99352.06
2018-05-18T10:40:59.629Z,99350.94
2018-05-18T10:43:28.070Z,99348.02
2018-05-18T10:45:57.014Z,99346.80
2018-05-18T10:48:25.309Z,99351.84
2018-05-18T10:50:53.659Z,99352.98
2018-05-18T10:53:22.052Z,99348.62
2018-05-18T10:55:50.460Z,99350.11
2018-05-18T10:58:18.845Z,99340.50
2018-05-18T11:00:47.203Z,99347.36
2018-05-18T11:03:15.631Z,99347.67
2018-05-18T11:05:43.954Z,99341.17
2018-05-18T11:08:12.361Z,99341.64
2018-05-18T11:10:40.641Z,99344.69
2018-05-18T11:13:09.937Z,99336.14
2018-05-18T11:15:38.267Z,99334.07
2018-05-18T11:18:08.055Z,99319.56
2018-05-18T11:20:37.074Z,99324.98
2018-05-18T11:23:05.555Z,99325.92
2018-05-18T11:25:33.910Z,99311.48
2018-05-18T11:30:43.386Z,99315.98
2018-05-18T11:33:11.781Z,99315.01
2018-05-18T11:35:40.226Z,99313.09
2018-05-18T11:38:08.519Z,99317.12
2018-05-18T11:40:41.886Z,99314.52
2018-05-18T11:43:10.223Z,99318.18
2018-05-18T11:45:40.412Z,99314.89
2018-05-18T11:48:09.189Z,99293.66
2018-05-18T11:50:38.166Z,99309.13
2018-05-18T11:53:06.819Z,99291.71
2018-05-18T11:55:35.553Z,99315.59
2018-05-18T11:58:04.168Z,99304.58
2018-05-18T12:00:33.227Z,99300.79
2018-05-18T12:03:01.986Z,99302.30
2018-05-18T12:05:30.424Z,99302.02
2018-05-18T12:08:00.496Z,99301.06
2018-05-18T12:10:32.366Z,99297.88
2018-05-18T12:13:02.476Z,99298.61
2018-05-18T12:15:31.699Z,99297.83
2018-05-18T12:18:04.307Z,99280.39
2018-05-18T12:20:32.708Z,99286.75
2018-05-18T12:23:01.657Z,99292.59
2018-05-18T12:25:30.435Z,99276.30
2018-05-18T12:27:59.911Z,99282.66
2018-05-18T12:30:29.440Z,99276.40
2018-05-18T12:32:58.578Z,99285.20
2018-05-18T12:35:26.889Z,99283.47
2018-05-18T12:37:55.208Z,99271.33
2018-05-18T12:40:23.550Z,99278.05
2018-05-18T12:42:51.921Z,99276.98
2018-05-18T12:45:20.287Z,99270.64
2018-05-18T12:47:48.656Z,99273.00
2018-05-18T12:50:16.971Z,99275.14
2018-05-18T12:52:45.288Z,99269.45
2018-05-18T12:55:13.658Z,99265.14
2018-05-18T12:57:42.004Z,99263.55
2018-05-18T13:00:10.294Z,99261.41
2018-05-18T13:02:38.678Z,99264.47
2018-05-18T13:05:07.865Z,99260.00
2018-05-18T13:07:36.231Z,99255.13
2018-05-18T13:10:04.608Z,99258.09
2018-05-18T13:12:33.230Z,99266.20
2018-05-18T13:15:01.695Z,99261.86
2018-05-18T13:17:30.029Z,99260.45
2018-05-18T13:19:58.353Z,99263.70
2018-05-18T13:22:26.716Z,99260.55
2018-05-18T13:24:55.106Z,99252.66
2018-05-18T13:27:23.439Z,99258.78
2018-05-18T13:29:51.732Z,99255.05
2018-05-18T13:32:20.126Z,99259.08
2018-05-18T13:34:48.448Z,99254.73
2018-05-18T13:37:16.775Z,99252.06
2018-05-18T13:39:45.311Z,99245.31
2018-05-18T13:42:13.651Z,99240.14
2018-05-18T13:44:42.109Z,99237.45
2018-05-18T13:47:10.418Z,99237.17
2018-05-18T13:49:38.827Z,99232.33
2018-05-18T13:52:07.230Z,99235.55
2018-05-18T13:54:35.691Z,99225.84
2018-05-18T13:57:04.124Z,99222.13
2018-05-18T13:59:32.391Z,99228.48
2018-05-18T14:02:00.682Z,99235.55
2018-05-18T14:04:29.003Z,99231.20
2018-05-18T14:06:57.294Z,99232.16
2018-05-18T14:09:25.596Z,99229.65
2018-05-18T14:11:53.893Z,99232.84
2018-05-18T14:14:22.397Z,99232.93
2018-05-18T14:16:50.636Z,99231.83
2018-05-18T14:19:19.278Z,99235.40
2018-05-18T14:21:47.635Z,99234.45
2018-05-18T14:24:15.984Z,99228.94
2018-05-18T14:26:44.306Z,99226.67
2018-05-18T14:29:13.397Z,99221.19
2018-05-18T14:31:41.725Z,99226.31
2018-05-18T14:34:10.034Z,99226.38
2018-05-18T14:36:38.356Z,99223.20
2018-05-18T14:39:06.703Z,99224.19
2018-05-18T14:41:35.019Z,99218.33
2018-05-18T14:44:03.394Z,99216.02
2018-05-18T14:46:31.870Z,99217.06
2018-05-18T14:49:00.182Z,99203.61
2018-05-18T14:51:28.500Z,99215.30
2018-05-18T14:53:56.781Z,99219.03
2018-05-18T14:56:26.118Z,99215.09
2018-05-18T14:58:54.484Z,99199.66
2018-05-18T15:01:22.812Z,99208.95
2018-05-18T15:03:51.148Z,99202.03
2018-05-18T15:06:19.484Z,99208.69
2018-05-18T15:08:47.878Z,99207.03
2018-05-18T15:11:16.421Z,99207.17
2018-05-18T15:13:44.932Z,99207.67
2018-05-18T15:16:13.297Z,99213.59
2018-05-18T15:18:41.604Z,99206.84
2018-05-18T15:21:09.915Z,99207.34
2018-05-18T15:23:38.949Z,99212.34
2018-05-18T15:26:07.226Z,99213.05
2018-05-18T15:28:35.676Z,99212.88
2018-05-18T15:31:03.978Z,99211.56
2018-05-18T15:33:32.501Z,99207.70
2018-05-18T15:36:00.911Z,99213.68
2018-05-18T15:38:29.323Z,99215.21
2018-05-18T15:40:59.456Z,99217.66
2018-05-18T15:43:27.835Z,99211.80
2018-05-18T15:46:05.715Z,99203.55
2018-05-18T15:48:34.101Z,99216.91
2018-05-18T15:51:02.924Z,99216.17
2018-05-18T15:53:31.580Z,99211.84
2018-05-18T15:55:59.970Z,99215.95
2018-05-18T15:58:28.688Z,99218.06
2018-05-18T16:00:57.071Z,99212.36
2018-05-18T16:03:28.132Z,99216.58
2018-05-18T16:05:56.838Z,99212.20
2018-05-18T16:08:25.210Z,99215.43
2018-05-18T16:10:53.588Z,99220.05
2018-05-18T16:13:22.063Z,99214.16
2018-05-18T16:15:50.418Z,99214.20
2018-05-18T16:18:18.758Z,99223.45
2018-05-18T16:20:47.174Z,99202.70
2018-05-18T16:23:15.599Z,99219.66
2018-05-18T16:25:44.079Z,99216.29
2018-05-18T16:28:12.445Z,99213.77
2018-05-18T16:30:41.764Z,99213.84
2018-05-18T16:33:10.064Z,99208.63
2018-05-18T16:35:39.777Z,99209.73
2018-05-18T16:38:09.372Z,99211.51
2018-05-18T16:40:38.568Z,99204.73
2018-05-18T16:43:06.972Z,99215.27
2018-05-18T16:45:35.422Z,99216.11
2018-05-18T16:48:03.862Z,99211.52
2018-05-18T16:50:32.160Z,99218.32
2018-05-18T16:53:00.474Z,99227.19
2018-05-18T16:55:30.738Z,99223.37
2018-05-18T16:57:59.242Z,99223.78
2018-05-18T17:00:27.580Z,99225.52
2018-05-18T17:02:55.961Z,99229.08
2018-05-18T17:05:24.259Z,99221.61
2018-05-18T17:07:52.578Z,99235.68
2018-05-18T17:10:20.989Z,99234.69
2018-05-18T17:12:50.232Z,99234.37
2018-05-18T17:15:19.025Z,99232.48
2018-05-18T17:17:47.791Z,99233.48
2018-05-18T17:20:16.262Z,99234.73
2018-05-18T17:22:44.795Z,99238.67
2018-05-18T17:25:13.083Z,99221.95
2018-05-18T17:27:41.371Z,99242.38
2018-05-18T17:30:10.127Z,99242.80
2018-05-18T17:32:38.544Z,99242.98
2018-05-18T17:35:08.063Z,99247.55
2018-05-18T17:37:36.533Z,99244.33
2018-05-18T17:40:05.607Z,99250.88
2018-05-18T17:42:33.951Z,99251.70
2018-05-18T17:45:02.364Z,99251.09
2018-05-18T17:47:30.813Z,99244.56
2018-05-18T17:49:59.303Z,99245.58
2018-05-18T17:52:27.842Z,99248.27
2018-05-18T17:54:56.319Z,99252.28
2018-05-18T17:57:24.741Z,99246.16
2018-05-18T17:59:53.076Z,99242.99
2018-05-18T18:02:21.533Z,99260.98
2018-05-18T18:04:49.893Z,99257.79
2018-05-18T18:07:18.402Z,99250.57
2018-05-18T18:09:46.679Z,99262.42
2018-05-18T18:12:15.007Z,99259.86
2018-05-18T18:14:45.125Z,99256.30
2018-05-18T18:17:13.563Z,99261.75
2018-05-18T18:19:42.404Z,99256.01
2018-05-18T18:22:10.720Z,99264.03
2018-05-18T18:24:39.128Z,99256.00
2018-05-18T18:27:07.500Z,99259.08
2018-05-18T18:29:35.770Z,99251.83
2018-05-18T18:32:05.158Z,99256.49
2018-05-18T18:34:34.406Z,99252.84
2018-05-18T18:37:02.746Z,99247.95
2018-05-18T18:39:31.190Z,99244.00
2018-05-18T18:41:59.498Z,99247.41
2018-05-18T18:44:27.788Z,99246.37
2018-05-18T18:46:56.098Z,99252.78
2018-05-18T18:49:24.956Z,99250.57
2018-05-18T18:51:53.343Z,99256.17
2018-05-18T18:54:24.047Z,99254.92
2018-05-18T18:56:52.356Z,99265.14
2018-05-18T18:59:20.784Z,99251.08
2018-05-18T19:01:49.455Z,99250.64
2018-05-18T19:04:18.642Z,99257.23
2018-05-18T19:06:46.961Z,99265.62
2018-05-18T19:09:15.263Z,99259.42
2018-05-18T19:11:43.542Z,99259.48
2018-05-18T19:14:11.963Z,99267.59
2018-05-18T19:16:40.394Z,99264.44
2018-05-18T19:19:08.709Z,99265.35
2018-05-18T19:21:37.047Z,99273.23
2018-05-18T19:24:05.638Z,99267.86
2018-05-18T19:26:34.287Z,99279.91
2018-05-18T19:29:02.698Z,99281.77
2018-05-18T19:31:31.128Z,99283.77
2018-05-18T19:34:02.735Z,99281.80
2018-05-18T19:36:32.411Z,99280.00
2018-05-18T19:39:02.887Z,99279.52
2018-05-18T19:41:35.734Z,99283.67
2018-05-18T19:44:08.225Z,99286.52
2018-05-18T19:46:37.495Z,99281.87
2018-05-18T19:49:10.779Z,99278.19
2018-05-18T19:51:40.370Z,99282.89
2018-05-18T19:54:08.759Z,99284.70
2018-05-18T19:56:37.557Z,99283.05
2018-05-18T19:59:07.119Z,99281.74
2018-05-18T20:01:36.255Z,99279.56
2018-05-18T20:04:04.634Z,99288.45
2018-05-18T20:06:32.947Z,99285.84
2018-05-18T20:09:01.272Z,99283.70
2018-05-18T20:11:29.610Z,99294.00
2018-05-18T20:13:57.908Z,99295.43
2018-05-18T20:16:26.272Z,99295.81
2018-05-18T20:18:54.613Z,99294.73
2018-05-18T20:21:22.950Z,99297.86
2018-05-18T20:23:52.110Z,99294.22
2018-05-18T20:26:21.240Z,99302.36
2018-05-18T20:28:55.374Z,99300.98
2018-05-18T20:31:24.134Z,99301.84
2018-05-18T20:33:52.505Z,99303.20
2018-05-18T20:36:20.873Z,99302.57
2018-05-18T20:38:49.175Z,99306.88
2018-05-18T20:41:17.483Z,99306.98
2018-05-18T20:43:46.644Z,99312.36
2018-05-18T20:46:14.957Z,99313.21
2018-05-18T20:48:43.294Z,99308.25
2018-05-18T20:51:11.735Z,99310.78
2018-05-18T20:53:40.057Z,99313.09
2018-05-18T20:56:08.342Z,99314.58
2018-05-18T20:58:36.791Z,99311.75
2018-05-18T21:01:05.812Z,99317.13
2018-05-18T21:03:34.277Z,99313.77
2018-05-18T21:06:02.498Z,99318.91
2018-05-18T21:08:31.372Z,99315.81
2018-05-18T21:10:59.720Z,99324.30
2018-05-18T21:13:28.051Z,99327.53
2018-05-18T21:15:56.544Z,99323.83
2018-05-18T21:18:24.901Z,99326.05
2018-05-18T21:20:53.276Z,99323.59
2018-05-18T21:23:21.717Z,99323.44
2018-05-18T21:25:50.435Z,99331.94
2018-05-18T21:28:18.767Z,99326.67
2018-05-18T21:30:47.079Z,99330.81
2018-05-18T21:33:15.358Z,99320.26
2018-05-18T21:35:44.097Z,99334.40
2018-05-18T21:38:13.907Z,99325.80
2018-05-18T21:40:42.257Z,99338.97
2018-05-18T21:43:10.530Z,99344.35
2018-05-18T21:45:38.847Z,99340.26
2018-05-18T21:48:07.129Z,99332.63
2018-05-18T21:50:35.460Z,99339.09
2018-05-18T21:53:03.734Z,99340.02
2018-05-18T21:55:32.151Z,99350.05
2018-05-18T21:58:00.432Z,99349.86
2018-05-18T22:00:28.788Z,99347.63
2018-05-18T22:02:57.127Z,99354.27
2018-05-18T22:05:25.437Z,99356.09
2018-05-18T22:07:53.727Z,99354.42
2018-05-18T22:10:22.019Z,99349.18
2018-05-18T22:12:50.335Z,99352.33
2018-05-18T22:15:18.632Z,99358.13
2018-05-18T22:17:46.920Z,99355.42
2018-05-18T22:20:15.846Z,99348.22
2018-05-18T22:22:44.209Z,99350.33
2018-05-18T22:25:12.644Z,99348.67
2018-05-18T22:27:40.930Z,99346.77
2018-05-18T22:30:09.355Z,99333.64
2018-05-18T22:32:53.950Z,99354.88
2018-05-18T22:35:22.230Z,99358.18
2018-05-18T22:37:50.557Z,99351.91
2018-05-18T22:40:18.831Z,99347.92
2018-05-18T22:42:47.111Z,99349.84
2018-05-18T22:45:15.475Z,99348.73
2018-05-18T22:47:43.780Z,99340.20
2018-05-18T22:50:12.550Z,99341.20
2018-05-18T22:52:40.919Z,99345.42
2018-05-18T22:55:09.269Z,99341.31
2018-05-18T22:57:37.610Z,99348.11
2018-05-18T23:00:05.915Z,99345.03
2018-05-18T23:02:34.326Z,99341.88
2018-05-18T23:05:02.709Z,99341.94
2018-05-18T23:07:30.995Z,99350.55
2018-05-18T23:09:59.284Z,99340.09
2018-05-18T23:12:27.647Z,99348.06
2018-05-18T23:14:56.012Z,99345.34
2018-05-18T23:17:25.196Z,99346.92
2018-05-18T23:19:53.535Z,99339.30
2018-05-18T23:22:21.858Z,99341.66
2018-05-18T23:24:50.234Z,99344.30
2018-05-18T23:27:18.544Z,99342.91
2018-05-18T23:29:46.891Z,99343.66
2018-05-18T23:32:15.213Z,99339.86
2018-05-18T23:34:43.634Z,99339.16
2018-05-18T23:37:11.944Z,99334.14
2018-05-18T23:39:40.258Z,99330.30
2018-05-18T23:42:08.535Z,99326.06
2018-05-18T23:44:36.877Z,99332.14
2018-05-18T23:47:05.563Z,99326.20
2018-05-18T23:49:33.907Z,99333.34
2018-05-18T23:52:02.203Z,99335.38
2018-05-18T23:54:30.509Z,99338.28
2018-05-18T23:56:58.798Z,99339.00
2018-05-18T23:59:27.117Z,99337.92
